createdAt,value
2023-03-02T00:01:28.693Z,-5.28
2023-03-02T00:03:59.326Z,-5.25
2023-03-02T00:06:28.424Z,-5.23
2023-03-02T00:08:57.413Z,-5.24
2023-03-02T00:11:25.610Z,-5.25
2023-03-02T00:13:53.120Z,-5.25
2023-03-02T00:16:20.689Z,-5.25
2023-03-02T00:18:48.193Z,-5.25
2023-03-02T00:21:15.790Z,-5.26
2023-03-02T00:23:43.330Z,-5.27
2023-03-02T00:26:10.958Z,-5.28
2023-03-02T00:28:38.517Z,-5.30
2023-03-02T00:31:06.979Z,-5.31
2023-03-02T00:33:34.637Z,-5.33
2023-03-02T00:36:02.944Z,-5.32
2023-03-02T00:38:30.788Z,-5.30
2023-03-02T00:40:58.289Z,-5.32
2023-03-02T00:43:26.664Z,-5.31
2023-03-02T00:45:55.171Z,-5.30
2023-03-02T00:48:23.001Z,-5.30
2023-03-02T00:50:50.721Z,-5.28
2023-03-02T00:53:18.276Z,-5.26
2023-03-02T00:55:54.055Z,-5.25
2023-03-02T00:58:22.057Z,-5.25
2023-03-02T01:00:49.688Z,-5.25
2023-03-02T01:03:17.342Z,-5.25
2023-03-02T01:05:45.036Z,-5.27
2023-03-02T01:08:12.604Z,-5.30
2023-03-02T01:10:40.620Z,-5.34
2023-03-02T01:13:08.250Z,-5.38
2023-03-02T01:15:35.792Z,-5.42
2023-03-02T01:18:03.487Z,-5.45
2023-03-02T01:20:31.062Z,-5.49
2023-03-02T01:22:58.591Z,-5.53
2023-03-02T01:25:26.308Z,-5.57
2023-03-02T01:27:54.206Z,-5.62
2023-03-02T01:30:22.043Z,-5.66
2023-03-02T01:32:49.607Z,-5.69
2023-03-02T01:35:17.256Z,-5.73
2023-03-02T01:37:44.817Z,-5.76
2023-03-02T01:40:13.770Z,-5.79
2023-03-02T01:42:47.124Z,-5.82
2023-03-02T01:45:44.489Z,-5.84
2023-03-02T01:48:15.737Z,-5.89
2023-03-02T01:50:43.409Z,-5.92
2023-03-02T01:53:13.108Z,-5.96
2023-03-02T01:55:41.052Z,-6.00
2023-03-02T01:58:08.724Z,-6.02
2023-03-02T02:00:38.570Z,-6.05
2023-03-02T02:03:14.285Z,-6.07
2023-03-02T02:05:46.256Z,-6.08
2023-03-02T02:08:14.674Z,-6.11
2023-03-02T02:10:42.425Z,-6.13
2023-03-02T02:13:11.191Z,-6.16
2023-03-02T02:15:40.256Z,-6.16
2023-03-02T02:18:07.847Z,-6.17
2023-03-02T02:20:43.191Z,-6.18
2023-03-02T02:23:34.156Z,-6.18
2023-03-02T02:26:13.529Z,-6.18
2023-03-02T02:28:47.340Z,-6.18
2023-03-02T02:31:42.075Z,-6.17
2023-03-02T02:34:22.695Z,-6.13
2023-03-02T02:36:55.215Z,-6.09
2023-03-02T02:39:30.239Z,-6.06
2023-03-02T02:42:01.958Z,-6.02
2023-03-02T02:44:31.050Z,-5.98
2023-03-02T02:46:58.635Z,-5.95
2023-03-02T02:49:31.925Z,-5.91
2023-03-02T02:51:59.943Z,-5.87
2023-03-02T02:54:29.909Z,-5.84
2023-03-02T02:57:01.101Z,-5.83
2023-03-02T02:59:33.101Z,-5.85
2023-03-02T03:02:01.225Z,-5.87
2023-03-02T03:04:31.103Z,-5.91
2023-03-02T03:07:06.544Z,-5.95
2023-03-02T03:09:34.136Z,-5.98
2023-03-02T03:12:08.374Z,-6.00
2023-03-02T03:14:39.791Z,-6.02
2023-03-02T03:17:08.185Z,-6.04
2023-03-02T03:19:35.742Z,-6.06
2023-03-02T03:22:03.325Z,-6.08
2023-03-02T03:24:33.405Z,-6.10
2023-03-02T03:27:02.257Z,-6.14
2023-03-02T03:29:30.257Z,-6.20
2023-03-02T03:31:59.324Z,-6.24
2023-03-02T03:34:28.440Z,-6.27
2023-03-02T03:36:56.512Z,-6.31
2023-03-02T03:39:24.020Z,-6.32
2023-03-02T03:41:51.557Z,-6.32
2023-03-02T03:44:19.085Z,-6.31
2023-03-02T03:46:46.634Z,-6.30
2023-03-02T03:49:14.286Z,-6.30
2023-03-02T03:51:41.990Z,-6.30
2023-03-02T03:54:10.639Z,-6.34
2023-03-02T03:56:41.779Z,-6.39
2023-03-02T03:59:11.111Z,-6.42
2023-03-02T04:01:48.089Z,-6.47
2023-03-02T04:04:17.724Z,-6.50
2023-03-02T04:06:45.190Z,-6.53
2023-03-02T04:09:13.142Z,-6.53
2023-03-02T04:11:43.244Z,-6.54
2023-03-02T04:14:11.637Z,-6.55
2023-03-02T04:16:40.646Z,-6.56
2023-03-02T04:19:09.601Z,-6.55
2023-03-02T04:21:43.695Z,-6.54
2023-03-02T04:24:12.057Z,-6.53
2023-03-02T04:26:41.728Z,-6.52
2023-03-02T04:29:10.996Z,-6.49
2023-03-02T04:31:39.620Z,-6.48
2023-03-02T04:34:07.907Z,-6.48
2023-03-02T04:36:38.805Z,-6.48
2023-03-02T04:39:07.726Z,-6.50
2023-03-02T04:41:35.436Z,-6.49
2023-03-02T04:44:03.549Z,-6.48
2023-03-02T04:46:31.999Z,-6.48
2023-03-02T04:49:00.332Z,-6.48
2023-03-02T04:51:33.989Z,-6.48
2023-03-02T04:54:05.486Z,-6.49
2023-03-02T04:56:34.018Z,-6.53
2023-03-02T04:59:02.112Z,-6.59
2023-03-02T05:01:29.723Z,-6.64
2023-03-02T05:03:57.270Z,-6.70
2023-03-02T05:06:24.801Z,-6.77
2023-03-02T05:08:53.521Z,-6.80
2023-03-02T05:11:21.171Z,-6.81
2023-03-02T05:13:54.731Z,-6.81
2023-03-02T05:16:23.383Z,-6.82
2023-03-02T05:18:50.985Z,-6.83
2023-03-02T05:21:18.926Z,-6.83
2023-03-02T05:23:46.955Z,-6.85
2023-03-02T05:26:14.642Z,-6.83
2023-03-02T05:28:43.172Z,-6.80
2023-03-02T05:31:18.680Z,-6.77
2023-03-02T05:33:47.069Z,-6.72
2023-03-02T05:36:17.696Z,-6.67
2023-03-02T05:38:46.832Z,-6.60
2023-03-02T05:41:15.097Z,-6.55
2023-03-02T05:43:42.692Z,-6.51
2023-03-02T05:46:10.343Z,-6.47
2023-03-02T05:48:37.918Z,-6.44
2023-03-02T05:51:05.757Z,-6.42
2023-03-02T05:53:33.309Z,-6.41
2023-03-02T05:56:00.838Z,-6.38
2023-03-02T05:58:28.478Z,-6.34
2023-03-02T06:00:56.030Z,-6.30
2023-03-02T06:03:23.624Z,-6.26
2023-03-02T06:05:51.342Z,-6.21
2023-03-02T06:08:20.461Z,-6.16
2023-03-02T06:10:48.423Z,-6.11
2023-03-02T06:13:16.421Z,-6.05
2023-03-02T06:15:44.303Z,-5.96
2023-03-02T06:18:11.873Z,-5.89
2023-03-02T06:20:40.219Z,-5.82
2023-03-02T06:23:07.888Z,-5.75
2023-03-02T06:25:35.444Z,-5.69
2023-03-02T06:28:03.054Z,-5.60
2023-03-02T06:30:30.606Z,-5.51
2023-03-02T06:32:58.146Z,-5.41
2023-03-02T06:35:25.849Z,-5.30
2023-03-02T06:37:53.569Z,-5.18
2023-03-02T06:40:21.144Z,-5.06
2023-03-02T06:42:48.722Z,-4.93
2023-03-02T06:45:16.465Z,-4.78
2023-03-02T06:47:44.042Z,-4.66
2023-03-02T06:50:11.874Z,-4.52
2023-03-02T06:52:39.486Z,-4.38
2023-03-02T06:55:07.541Z,-4.24
2023-03-02T06:57:35.102Z,-4.09
2023-03-02T07:00:06.705Z,-3.94
2023-03-02T07:02:34.293Z,-3.81
2023-03-02T07:05:02.507Z,-3.62
2023-03-02T07:07:30.036Z,-3.44
2023-03-02T07:09:57.548Z,-3.31
2023-03-02T07:12:25.267Z,-3.18
2023-03-02T07:14:52.867Z,-3.07
2023-03-02T07:17:20.379Z,-2.96
2023-03-02T07:19:47.949Z,-2.85
2023-03-02T07:22:15.511Z,-2.75
2023-03-02T07:24:45.046Z,-2.64
2023-03-02T07:27:12.656Z,-2.54
2023-03-02T07:29:40.333Z,-2.44
2023-03-02T07:32:08.536Z,-2.35
2023-03-02T07:34:36.845Z,-2.25
2023-03-02T07:37:04.497Z,-2.17
2023-03-02T07:39:32.382Z,-2.07
2023-03-02T07:42:01.156Z,-1.99
2023-03-02T07:44:28.887Z,-1.89
2023-03-02T07:46:56.799Z,-1.80
2023-03-02T07:49:24.475Z,-1.71
2023-03-02T07:51:52.289Z,-1.61
2023-03-02T07:54:19.876Z,-1.51
2023-03-02T07:56:47.563Z,-1.41
2023-03-02T07:59:15.153Z,-1.31
2023-03-02T08:01:42.903Z,-1.21
2023-03-02T08:04:10.505Z,-1.10
2023-03-02T08:06:39.230Z,-0.98
2023-03-02T08:09:08.121Z,-0.86
2023-03-02T08:11:35.785Z,-0.76
2023-03-02T08:14:03.359Z,-0.64
2023-03-02T08:16:30.976Z,-0.51
2023-03-02T08:18:59.895Z,-0.40
2023-03-02T08:21:29.140Z,-0.28
2023-03-02T08:23:57.968Z,-0.17
2023-03-02T08:26:25.571Z,-0.03
2023-03-02T08:28:53.129Z,0.10
2023-03-02T08:31:20.725Z,0.23
2023-03-02T08:33:48.268Z,0.37
2023-03-02T08:36:18.671Z,0.52
2023-03-02T08:38:46.692Z,0.74
2023-03-02T08:41:17.226Z,0.89
2023-03-02T08:43:44.834Z,1.00
2023-03-02T08:46:14.062Z,1.11
2023-03-02T08:48:42.117Z,1.24
2023-03-02T08:51:13.269Z,1.34
2023-03-02T08:53:43.598Z,1.45
2023-03-02T08:56:19.923Z,1.56
2023-03-02T08:58:49.492Z,1.68
2023-03-02T09:01:19.746Z,1.79
2023-03-02T09:03:47.413Z,1.92
2023-03-02T09:06:15.678Z,2.06
2023-03-02T09:08:43.891Z,2.18
2023-03-02T09:11:11.402Z,2.32
2023-03-02T09:13:39.007Z,2.46
2023-03-02T09:16:06.955Z,2.63
2023-03-02T09:18:35.721Z,2.79
2023-03-02T09:21:04.172Z,2.97
2023-03-02T09:23:32.887Z,3.17
2023-03-02T09:26:00.476Z,3.40
2023-03-02T09:28:28.200Z,3.60
2023-03-02T09:30:59.581Z,3.75
2023-03-02T09:33:28.019Z,3.92
2023-03-02T09:35:55.690Z,4.07
2023-03-02T09:38:23.945Z,4.23
2023-03-02T09:41:17.603Z,4.41
2023-03-02T09:44:22.611Z,4.64
2023-03-02T09:46:54.408Z,4.96
2023-03-02T09:49:27.598Z,5.30
2023-03-02T09:52:09.731Z,5.69
2023-03-02T09:54:38.794Z,6.15
2023-03-02T09:57:21.907Z,6.63
2023-03-02T09:59:59.857Z,7.21
2023-03-02T10:02:37.898Z,7.78
2023-03-02T10:06:16.993Z,8.53
2023-03-02T10:08:44.660Z,8.97
2023-03-02T10:11:12.186Z,9.35
2023-03-02T10:14:02.820Z,9.72
2023-03-02T10:16:36.587Z,10.21
2023-03-02T10:19:25.032Z,10.58
2023-03-02T10:22:38.632Z,11.12
2023-03-02T10:25:31.148Z,11.56
2023-03-02T10:28:12.659Z,11.89
2023-03-02T10:30:40.343Z,12.20
2023-03-02T10:33:19.636Z,12.48
2023-03-02T10:35:49.826Z,12.62
2023-03-02T10:38:19.175Z,12.75
2023-03-02T10:40:48.865Z,12.89
2023-03-02T10:43:35.274Z,12.93
2023-03-02T10:46:05.729Z,13.04
2023-03-02T10:48:34.136Z,13.29
2023-03-02T10:51:01.741Z,13.42
2023-03-02T10:53:29.333Z,13.49
2023-03-02T10:55:56.970Z,13.62
2023-03-02T10:58:30.640Z,13.94
2023-03-02T11:01:15.061Z,14.36
2023-03-02T11:03:42.883Z,14.56
2023-03-02T11:06:21.323Z,14.70
2023-03-02T11:09:21.525Z,15.03
2023-03-02T11:11:54.434Z,15.66
2023-03-02T11:14:22.490Z,16.17
2023-03-02T11:16:51.879Z,16.55
2023-03-02T11:19:35.201Z,17.07
2023-03-02T11:22:24.384Z,17.64
2023-03-02T11:24:57.984Z,18.15
2023-03-02T11:27:29.708Z,18.40
2023-03-02T11:30:11.512Z,18.85
2023-03-02T11:32:47.948Z,19.65
2023-03-02T11:35:31.652Z,20.53
2023-03-02T11:38:23.569Z,21.35
2023-03-02T11:41:02.881Z,21.80
2023-03-02T11:43:30.795Z,21.28
2023-03-02T11:46:01.798Z,20.78
2023-03-02T11:48:33.368Z,20.79
2023-03-02T11:51:04.509Z,21.21
2023-03-02T11:53:41.541Z,21.71
2023-03-02T11:56:09.663Z,22.38
2023-03-02T11:58:38.771Z,22.36
2023-03-02T12:01:13.198Z,22.27
2023-03-02T12:03:41.937Z,22.60
2023-03-02T12:06:18.838Z,23.32
2023-03-02T12:08:48.114Z,23.86
2023-03-02T12:11:18.564Z,24.20
2023-03-02T12:13:59.324Z,24.51
2023-03-02T12:16:43.502Z,24.50
2023-03-02T12:19:25.673Z,24.70
2023-03-02T12:22:03.067Z,25.17
2023-03-02T12:24:33.576Z,25.55
2023-03-02T12:27:15.048Z,25.60
2023-03-02T12:30:09.005Z,25.92
2023-03-02T12:32:37.645Z,26.30
2023-03-02T12:35:08.061Z,26.40
2023-03-02T12:37:51.854Z,26.67
2023-03-02T12:40:44.227Z,27.00
2023-03-02T12:43:33.886Z,27.28
2023-03-02T12:46:16.813Z,26.99
2023-03-02T12:48:58.013Z,26.48
2023-03-02T12:51:33.379Z,25.67
2023-03-02T12:54:14.890Z,25.08
2023-03-02T12:56:42.620Z,25.40
2023-03-02T12:59:22.093Z,26.21
2023-03-02T13:01:49.730Z,26.76
2023-03-02T13:04:27.185Z,26.98
2023-03-02T13:06:55.088Z,27.18
2023-03-02T13:09:23.072Z,27.48
2023-03-02T13:11:50.906Z,27.83
2023-03-02T13:14:20.835Z,28.24
2023-03-02T13:17:00.224Z,28.58
2023-03-02T13:19:28.659Z,28.78
2023-03-02T13:21:56.756Z,28.96
2023-03-02T13:24:44.696Z,28.60
2023-03-02T13:27:21.331Z,28.77
2023-03-02T13:29:50.235Z,29.44
2023-03-02T13:32:22.079Z,30.05
2023-03-02T13:34:55.363Z,30.23
2023-03-02T13:37:34.760Z,29.94
2023-03-02T13:40:05.007Z,29.74
2023-03-02T13:42:40.568Z,29.82
2023-03-02T13:45:29.516Z,29.88
2023-03-02T13:47:59.714Z,30.04
2023-03-02T13:50:31.162Z,30.34
2023-03-02T13:53:02.193Z,30.67
2023-03-02T13:55:29.817Z,30.33
2023-03-02T13:57:58.116Z,29.93
2023-03-02T14:00:33.152Z,30.07
2023-03-02T14:03:01.597Z,30.02
2023-03-02T14:05:29.841Z,29.87
2023-03-02T14:07:57.460Z,30.01
2023-03-02T14:10:25.654Z,30.00
2023-03-02T14:13:03.427Z,29.22
2023-03-02T14:15:31.715Z,29.03
2023-03-02T14:18:00.353Z,28.75
2023-03-02T14:20:27.960Z,28.48
2023-03-02T14:22:55.642Z,28.35
2023-03-02T14:25:23.302Z,28.37
2023-03-02T14:27:50.876Z,28.22
2023-03-02T14:30:20.935Z,27.94
2023-03-02T14:32:49.512Z,27.92
2023-03-02T14:35:17.104Z,28.09
2023-03-02T14:37:48.642Z,28.23
2023-03-02T14:40:27.557Z,28.15
2023-03-02T14:42:55.235Z,28.00
2023-03-02T14:45:22.876Z,28.12
2023-03-02T14:47:50.475Z,28.41
2023-03-02T14:50:18.177Z,28.28
2023-03-02T14:52:49.677Z,27.74
2023-03-02T14:55:28.891Z,27.65
2023-03-02T14:58:03.444Z,27.28
2023-03-02T15:00:31.482Z,26.67
2023-03-02T15:02:59.397Z,26.13
2023-03-02T15:05:27.124Z,25.79
2023-03-02T15:07:54.863Z,25.46
2023-03-02T15:10:24.342Z,25.28
2023-03-02T15:12:51.993Z,25.16
2023-03-02T15:15:19.597Z,24.58
2023-03-02T15:17:47.199Z,23.94
2023-03-02T15:20:16.111Z,23.01
2023-03-02T15:22:43.847Z,21.58
2023-03-02T15:25:11.568Z,19.60
2023-03-02T15:27:39.179Z,17.89
2023-03-02T15:30:07.511Z,16.42
2023-03-02T15:32:36.662Z,15.23
2023-03-02T15:35:05.075Z,14.20
2023-03-02T15:37:32.678Z,13.80
2023-03-02T15:40:00.324Z,14.13
2023-03-02T15:42:27.857Z,14.48
2023-03-02T15:44:58.286Z,14.93
2023-03-02T15:47:26.024Z,15.26
2023-03-02T15:49:53.644Z,15.47
2023-03-02T15:52:21.234Z,15.58
2023-03-02T15:54:48.876Z,15.49
2023-03-02T15:57:16.521Z,15.21
2023-03-02T15:59:44.301Z,14.48
2023-03-02T16:02:14.186Z,13.62
2023-03-02T16:04:42.725Z,12.77
2023-03-02T16:07:10.318Z,11.92
2023-03-02T16:09:37.894Z,11.13
2023-03-02T16:12:06.171Z,10.41
2023-03-02T16:14:34.196Z,9.71
2023-03-02T16:17:01.889Z,9.12
2023-03-02T16:19:29.554Z,8.59
2023-03-02T16:21:57.225Z,8.08
2023-03-02T16:24:25.056Z,7.64
2023-03-02T16:26:53.624Z,7.26
2023-03-02T16:29:21.746Z,6.89
2023-03-02T16:31:49.774Z,6.58
2023-03-02T16:34:17.312Z,6.29
2023-03-02T16:36:45.441Z,6.02
2023-03-02T16:39:13.351Z,5.78
2023-03-02T16:41:43.496Z,5.54
2023-03-02T16:44:11.796Z,5.32
2023-03-02T16:46:39.405Z,5.10
2023-03-02T16:49:07.420Z,4.90
2023-03-02T16:51:35.410Z,4.71
2023-03-02T16:54:03.967Z,4.53
2023-03-02T16:56:31.519Z,4.35
2023-03-02T16:59:00.390Z,4.18
2023-03-02T17:01:28.359Z,4.01
2023-03-02T17:03:56.486Z,3.85
2023-03-02T17:06:24.836Z,3.71
2023-03-02T17:08:52.461Z,3.58
2023-03-02T17:11:20.560Z,3.45
2023-03-02T17:13:48.130Z,3.32
2023-03-02T17:16:15.769Z,3.19
2023-03-02T17:18:44.041Z,3.09
2023-03-02T17:21:11.632Z,2.99
2023-03-02T17:23:39.233Z,2.90
2023-03-02T17:26:06.840Z,2.84
2023-03-02T17:28:34.421Z,2.77
2023-03-02T17:31:04.238Z,2.70
2023-03-02T17:33:32.265Z,2.62
2023-03-02T17:36:04.398Z,2.55
2023-03-02T17:38:32.068Z,2.48
2023-03-02T17:41:06.975Z,2.41
2023-03-02T17:43:36.496Z,2.32
2023-03-02T17:46:25.231Z,2.22
2023-03-02T17:48:56.632Z,2.11
2023-03-02T17:51:25.487Z,2.00
2023-03-02T17:53:54.512Z,1.89
2023-03-02T17:56:25.603Z,1.79
2023-03-02T17:59:00.890Z,1.68
2023-03-02T18:01:29.583Z,1.56
2023-03-02T18:03:57.733Z,1.45
2023-03-02T18:06:25.409Z,1.35
2023-03-02T18:08:52.992Z,1.24
2023-03-02T18:11:22.623Z,1.13
2023-03-02T18:13:50.613Z,1.00
2023-03-02T18:16:18.221Z,0.89
2023-03-02T18:18:45.865Z,0.81
2023-03-02T18:21:13.427Z,0.73
2023-03-02T18:23:41.232Z,0.67
2023-03-02T18:26:08.855Z,0.62
2023-03-02T18:28:36.411Z,0.56
2023-03-02T18:31:04.082Z,0.49
2023-03-02T18:33:31.671Z,0.43
2023-03-02T18:35:59.272Z,0.37
2023-03-02T18:38:27.010Z,0.30
2023-03-02T18:40:54.695Z,0.24
2023-03-02T18:43:22.297Z,0.19
2023-03-02T18:45:49.908Z,0.15
2023-03-02T18:48:20.065Z,0.14
2023-03-02T18:50:47.770Z,0.15
2023-03-02T18:53:15.916Z,0.13
2023-03-02T18:55:43.518Z,0.09
2023-03-02T18:58:17.657Z,0.06
2023-03-02T19:00:46.440Z,0.02
2023-03-02T19:03:16.363Z,-0.03
2023-03-02T19:05:44.844Z,-0.08
2023-03-02T19:08:12.504Z,-0.13
2023-03-02T19:10:40.483Z,-0.19
2023-03-02T19:13:08.550Z,-0.24
2023-03-02T19:15:36.068Z,-0.29
2023-03-02T19:18:03.812Z,-0.35
2023-03-02T19:20:31.401Z,-0.41
2023-03-02T19:22:59.204Z,-0.48
2023-03-02T19:25:27.105Z,-0.55
2023-03-02T19:27:54.718Z,-0.62
2023-03-02T19:30:25.301Z,-0.67
2023-03-02T19:32:53.567Z,-0.73
2023-03-02T19:35:23.912Z,-0.79
2023-03-02T19:37:52.086Z,-0.86
2023-03-02T19:40:22.383Z,-0.94
2023-03-02T19:42:50.525Z,-1.00
2023-03-02T19:45:22.199Z,-1.06
2023-03-02T19:47:49.824Z,-1.13
2023-03-02T19:50:18.952Z,-1.19
2023-03-02T19:52:47.457Z,-1.24
2023-03-02T19:55:16.282Z,-1.30
2023-03-02T19:57:45.001Z,-1.34
2023-03-02T20:00:15.697Z,-1.40
2023-03-02T20:02:43.442Z,-1.45
2023-03-02T20:05:11.580Z,-1.46
2023-03-02T20:07:41.655Z,-1.48
2023-03-02T20:10:11.302Z,-1.48
2023-03-02T20:12:38.854Z,-1.47
2023-03-02T20:15:07.066Z,-1.48
2023-03-02T20:17:34.822Z,-1.45
2023-03-02T20:20:02.429Z,-1.44
2023-03-02T20:22:30.018Z,-1.43
2023-03-02T20:24:57.531Z,-1.42
2023-03-02T20:27:25.281Z,-1.42
2023-03-02T20:29:52.862Z,-1.43
2023-03-02T20:32:20.566Z,-1.45
2023-03-02T20:34:48.336Z,-1.42
2023-03-02T20:37:15.973Z,-1.37
2023-03-02T20:39:45.052Z,-1.36
2023-03-02T20:42:12.667Z,-1.38
2023-03-02T20:44:40.472Z,-1.42
2023-03-02T20:47:13.664Z,-1.45
2023-03-02T20:49:41.468Z,-1.49
2023-03-02T20:52:09.901Z,-1.53
2023-03-02T20:54:41.763Z,-1.55
2023-03-02T20:57:14.768Z,-1.57
2023-03-02T20:59:43.284Z,-1.63
2023-03-02T21:02:11.064Z,-1.67
2023-03-02T21:04:38.664Z,-1.67
2023-03-02T21:07:07.155Z,-1.67
2023-03-02T21:09:34.778Z,-1.69
2023-03-02T21:12:04.149Z,-1.70
2023-03-02T21:14:31.967Z,-1.69
2023-03-02T21:17:01.495Z,-1.68
2023-03-02T21:19:29.134Z,-1.66
2023-03-02T21:21:57.483Z,-1.62
2023-03-02T21:24:25.026Z,-1.57
2023-03-02T21:26:53.951Z,-1.55
2023-03-02T21:29:24.963Z,-1.54
2023-03-02T21:31:53.100Z,-1.55
2023-03-02T21:34:20.811Z,-1.57
2023-03-02T21:36:49.205Z,-1.61
2023-03-02T21:39:16.826Z,-1.64
2023-03-02T21:41:44.366Z,-1.69
2023-03-02T21:44:11.974Z,-1.72
2023-03-02T21:46:39.559Z,-1.73
2023-03-02T21:49:07.641Z,-1.75
2023-03-02T21:51:35.340Z,-1.75
2023-03-02T21:54:03.035Z,-1.75
2023-03-02T21:56:31.198Z,-1.74
2023-03-02T21:58:58.967Z,-1.76
2023-03-02T22:01:26.849Z,-1.79
2023-03-02T22:03:54.492Z,-1.82
2023-03-02T22:06:28.371Z,-1.86
2023-03-02T22:08:56.170Z,-1.92
2023-03-02T22:11:30.224Z,-1.96
2023-03-02T22:14:01.054Z,-1.98
2023-03-02T22:16:34.927Z,-1.99
2023-03-02T22:19:17.897Z,-1.97
2023-03-02T22:21:47.208Z,-1.96
2023-03-02T22:24:29.934Z,-1.96
2023-03-02T22:27:19.046Z,-1.96
2023-03-02T22:29:47.950Z,-1.99
2023-03-02T22:32:25.194Z,-2.03
2023-03-02T22:34:55.891Z,-2.08
2023-03-02T22:37:27.535Z,-2.13
2023-03-02T22:39:57.869Z,-2.19
2023-03-02T22:42:28.950Z,-2.24
2023-03-02T22:45:23.610Z,-2.31
2023-03-02T22:47:53.370Z,-2.37
2023-03-02T22:50:25.358Z,-2.40
2023-03-02T22:52:55.152Z,-2.42
2023-03-02T22:55:38.760Z,-2.45
2023-03-02T22:58:30.836Z,-2.47
2023-03-02T23:01:00.503Z,-2.46
2023-03-02T23:03:40.593Z,-2.43
2023-03-02T23:06:45.428Z,-2.42
2023-03-02T23:09:16.398Z,-2.42
2023-03-02T23:11:45.165Z,-2.44
2023-03-02T23:14:23.810Z,-2.44
2023-03-02T23:17:05.554Z,-2.47
2023-03-02T23:19:33.073Z,-2.52
2023-03-02T23:22:00.654Z,-2.56
2023-03-02T23:24:28.269Z,-2.59
2023-03-02T23:26:56.015Z,-2.65
2023-03-02T23:29:23.648Z,-2.70
2023-03-02T23:31:51.248Z,-2.73
2023-03-02T23:34:18.795Z,-2.76
2023-03-02T23:36:46.328Z,-2.77
2023-03-02T23:39:13.893Z,-2.80
2023-03-02T23:41:41.642Z,-2.84
2023-03-02T23:44:09.240Z,-2.82
2023-03-02T23:46:36.752Z,-2.81
2023-03-02T23:49:04.357Z,-2.81
2023-03-02T23:51:32.026Z,-2.85
2023-03-02T23:53:59.586Z,-2.90
2023-03-02T23:56:27.135Z,-2.94
2023-03-02T23:58:54.721Z,-2.99
